sensor_id;sensor_type;location;lat;lon;timestamp;P1;durP1;ratioP1;P2;durP2;ratioP2
31112;SDS011;17763;48.730;9.136;2022-07-06T00:01:11;2.13;;;1.95;;
31112;SDS011;17763;48.730;9.136;2022-07-06T00:03:39;3.85;;;1.92;;
31112;SDS011;17763;48.730;9.136;2022-07-06T00:06:05;4.85;;;2.38;;
31112;SDS011;17763;48.730;9.136;2022-07-06T00:08:33;6.22;;;1.98;;
31112;SDS011;17763;48.730;9.136;2022-07-06T00:10:59;3.70;;;2.30;;
31112;SDS011;17763;48.730;9.136;2022-07-06T00:13:29;2.35;;;1.85;;
31112;SDS011;17763;48.730;9.136;2022-07-06T00:15:55;2.75;;;2.28;;
31112;SDS011;17763;48.730;9.136;2022-07-06T00:18:20;7.63;;;1.98;;
31112;SDS011;17763;48.730;9.136;2022-07-06T00:20:48;2.55;;;1.90;;
31112;SDS011;17763;48.730;9.136;2022-07-06T00:23:14;1.98;;;1.70;;
31112;SDS011;17763;48.730;9.136;2022-07-06T00:25:42;6.20;;;2.10;;
31112;SDS011;17763;48.730;9.136;2022-07-06T00:28:10;4.37;;;2.33;;
31112;SDS011;17763;48.730;9.136;2022-07-06T00:30:36;2.83;;;2.20;;
31112;SDS011;17763;48.730;9.136;2022-07-06T00:33:01;5.47;;;2.05;;
31112;SDS011;17763;48.730;9.136;2022-07-06T00:35:27;4.70;;;2.15;;
31112;SDS011;17763;48.730;9.136;2022-07-06T00:37:53;2.95;;;2.20;;
31112;SDS011;17763;48.730;9.136;2022-07-06T00:40:21;3.20;;;2.22;;
31112;SDS011;17763;48.730;9.136;2022-07-06T00:42:47;3.40;;;2.45;;
31112;SDS011;17763;48.730;9.136;2022-07-06T00:45:14;2.22;;;2.00;;
31112;SDS011;17763;48.730;9.136;2022-07-06T00:47:41;2.92;;;2.00;;
31112;SDS011;17763;48.730;9.136;2022-07-06T00:50:08;2.20;;;2.00;;
31112;SDS011;17763;48.730;9.136;2022-07-06T00:52:53;2.38;;;2.22;;
31112;SDS011;17763;48.730;9.136;2022-07-06T00:55:22;3.63;;;2.30;;
31112;SDS011;17763;48.730;9.136;2022-07-06T00:57:49;3.05;;;2.15;;
31112;SDS011;17763;48.730;9.136;2022-07-06T01:00:18;4.82;;;2.20;;
31112;SDS011;17763;48.730;9.136;2022-07-06T01:02:48;2.17;;;1.98;;
31112;SDS011;17763;48.730;9.136;2022-07-06T01:05:17;3.47;;;2.40;;
31112;SDS011;17763;48.730;9.136;2022-07-06T01:07:44;2.60;;;2.25;;
31112;SDS011;17763;48.730;9.136;2022-07-06T01:10:11;4.30;;;2.30;;
31112;SDS011;17763;48.730;9.136;2022-07-06T01:12:39;3.50;;;2.17;;
31112;SDS011;17763;48.730;9.136;2022-07-06T01:15:09;2.45;;;2.22;;
31112;SDS011;17763;48.730;9.136;2022-07-06T01:17:37;3.88;;;2.15;;
31112;SDS011;17763;48.730;9.136;2022-07-06T01:20:08;3.58;;;2.47;;
31112;SDS011;17763;48.730;9.136;2022-07-06T01:22:36;12.43;;;2.63;;
31112;SDS011;17763;48.730;9.136;2022-07-06T01:25:03;2.47;;;2.28;;
31112;SDS011;17763;48.730;9.136;2022-07-06T01:27:30;4.55;;;2.55;;
31112;SDS011;17763;48.730;9.136;2022-07-06T01:29:56;3.42;;;2.20;;
31112;SDS011;17763;48.730;9.136;2022-07-06T01:32:24;5.40;;;2.10;;
31112;SDS011;17763;48.730;9.136;2022-07-06T01:34:52;2.65;;;1.98;;
31112;SDS011;17763;48.730;9.136;2022-07-06T01:37:20;2.13;;;1.93;;
31112;SDS011;17763;48.730;9.136;2022-07-06T01:39:48;4.88;;;2.30;;
31112;SDS011;17763;48.730;9.136;2022-07-06T01:42:13;7.30;;;2.53;;
31112;SDS011;17763;48.730;9.136;2022-07-06T01:44:39;2.65;;;2.08;;
31112;SDS011;17763;48.730;9.136;2022-07-06T01:47:07;2.22;;;2.03;;
31112;SDS011;17763;48.730;9.136;2022-07-06T01:49:34;4.57;;;2.25;;
31112;SDS011;17763;48.730;9.136;2022-07-06T01:52:02;2.55;;;2.10;;
31112;SDS011;17763;48.730;9.136;2022-07-06T01:54:28;4.13;;;2.13;;
31112;SDS011;17763;48.730;9.136;2022-07-06T01:56:54;4.47;;;2.20;;
31112;SDS011;17763;48.730;9.136;2022-07-06T01:59:19;3.88;;;2.35;;
31112;SDS011;17763;48.730;9.136;2022-07-06T02:01:47;2.13;;;2.00;;
31112;SDS011;17763;48.730;9.136;2022-07-06T02:04:15;2.65;;;1.85;;
31112;SDS011;17763;48.730;9.136;2022-07-06T02:06:41;4.90;;;2.53;;
31112;SDS011;17763;48.730;9.136;2022-07-06T02:09:09;2.53;;;2.08;;
31112;SDS011;17763;48.730;9.136;2022-07-06T02:11:37;2.28;;;1.85;;
31112;SDS011;17763;48.730;9.136;2022-07-06T02:14:05;2.92;;;1.98;;
31112;SDS011;17763;48.730;9.136;2022-07-06T02:16:33;3.50;;;2.30;;
31112;SDS011;17763;48.730;9.136;2022-07-06T02:18:58;1.75;;;1.65;;
31112;SDS011;17763;48.730;9.136;2022-07-06T02:21:24;2.97;;;2.25;;
31112;SDS011;17763;48.730;9.136;2022-07-06T02:23:52;3.38;;;2.00;;
31112;SDS011;17763;48.730;9.136;2022-07-06T02:26:17;2.35;;;1.98;;
31112;SDS011;17763;48.730;9.136;2022-07-06T02:28:43;4.03;;;2.05;;
31112;SDS011;17763;48.730;9.136;2022-07-06T02:31:11;3.25;;;2.00;;
31112;SDS011;17763;48.730;9.136;2022-07-06T02:33:38;2.75;;;2.30;;
31112;SDS011;17763;48.730;9.136;2022-07-06T02:36:04;4.00;;;2.13;;
31112;SDS011;17763;48.730;9.136;2022-07-06T02:38:30;2.33;;;1.88;;
31112;SDS011;17763;48.730;9.136;2022-07-06T02:40:55;3.20;;;2.08;;
31112;SDS011;17763;48.730;9.136;2022-07-06T02:43:21;4.05;;;2.20;;
31112;SDS011;17763;48.730;9.136;2022-07-06T02:45:49;2.33;;;1.85;;
31112;SDS011;17763;48.730;9.136;2022-07-06T02:48:17;4.90;;;2.33;;
31112;SDS011;17763;48.730;9.136;2022-07-06T02:50:44;2.70;;;2.40;;
31112;SDS011;17763;48.730;9.136;2022-07-06T02:53:10;2.53;;;2.00;;
31112;SDS011;17763;48.730;9.136;2022-07-06T02:55:38;2.92;;;2.45;;
31112;SDS011;17763;48.730;9.136;2022-07-06T02:58:06;2.47;;;2.28;;
31112;SDS011;17763;48.730;9.136;2022-07-06T03:00:31;3.17;;;2.33;;
31112;SDS011;17763;48.730;9.136;2022-07-06T03:02:59;2.65;;;2.05;;
31112;SDS011;17763;48.730;9.136;2022-07-06T03:05:25;2.65;;;2.45;;
31112;SDS011;17763;48.730;9.136;2022-07-06T03:07:52;8.00;;;2.72;;
31112;SDS011;17763;48.730;9.136;2022-07-06T03:10:18;4.95;;;2.38;;
31112;SDS011;17763;48.730;9.136;2022-07-06T03:12:46;2.28;;;2.08;;
31112;SDS011;17763;48.730;9.136;2022-07-06T03:15:11;2.40;;;2.28;;
31112;SDS011;17763;48.730;9.136;2022-07-06T03:17:37;4.43;;;2.50;;
31112;SDS011;17763;48.730;9.136;2022-07-06T03:20:06;2.90;;;2.60;;
31112;SDS011;17763;48.730;9.136;2022-07-06T03:22:32;2.75;;;2.38;;
31112;SDS011;17763;48.730;9.136;2022-07-06T03:24:57;3.03;;;2.47;;
31112;SDS011;17763;48.730;9.136;2022-07-06T03:27:25;3.83;;;2.45;;
31112;SDS011;17763;48.730;9.136;2022-07-06T03:29:51;2.67;;;2.40;;
31112;SDS011;17763;48.730;9.136;2022-07-06T03:32:21;4.38;;;2.70;;
31112;SDS011;17763;48.730;9.136;2022-07-06T03:34:47;6.18;;;2.47;;
31112;SDS011;17763;48.730;9.136;2022-07-06T03:37:15;4.90;;;3.03;;
31112;SDS011;17763;48.730;9.136;2022-07-06T03:39:45;3.63;;;2.23;;
31112;SDS011;17763;48.730;9.136;2022-07-06T03:42:11;3.55;;;2.70;;
31112;SDS011;17763;48.730;9.136;2022-07-06T03:44:39;5.28;;;3.63;;
31112;SDS011;17763;48.730;9.136;2022-07-06T03:47:04;4.38;;;2.60;;
31112;SDS011;17763;48.730;9.136;2022-07-06T03:49:30;2.63;;;2.42;;
31112;SDS011;17763;48.730;9.136;2022-07-06T03:51:55;2.90;;;2.30;;
31112;SDS011;17763;48.730;9.136;2022-07-06T03:54:23;3.08;;;2.58;;
31112;SDS011;17763;48.730;9.136;2022-07-06T03:56:49;2.40;;;2.20;;
31112;SDS011;17763;48.730;9.136;2022-07-06T03:59:19;3.42;;;2.80;;
31112;SDS011;17763;48.730;9.136;2022-07-06T04:01:47;3.03;;;2.75;;
31112;SDS011;17763;48.730;9.136;2022-07-06T04:04:13;4.30;;;3.00;;
31112;SDS011;17763;48.730;9.136;2022-07-06T04:06:41;4.22;;;2.80;;
31112;SDS011;17763;48.730;9.136;2022-07-06T04:09:07;3.03;;;2.63;;
31112;SDS011;17763;48.730;9.136;2022-07-06T04:11:33;2.85;;;2.65;;
31112;SDS011;17763;48.730;9.136;2022-07-06T04:13:58;3.10;;;2.80;;
31112;SDS011;17763;48.730;9.136;2022-07-06T04:16:26;5.43;;;2.83;;
31112;SDS011;17763;48.730;9.136;2022-07-06T04:18:54;4.40;;;3.60;;
31112;SDS011;17763;48.730;9.136;2022-07-06T04:21:20;4.25;;;3.30;;
31112;SDS011;17763;48.730;9.136;2022-07-06T04:23:50;9.43;;;3.50;;
31112;SDS011;17763;48.730;9.136;2022-07-06T04:26:18;4.15;;;3.50;;
31112;SDS011;17763;48.730;9.136;2022-07-06T04:28:43;3.47;;;2.83;;
31112;SDS011;17763;48.730;9.136;2022-07-06T04:31:09;4.90;;;3.33;;
31112;SDS011;17763;48.730;9.136;2022-07-06T04:33:35;4.55;;;3.35;;
31112;SDS011;17763;48.730;9.136;2022-07-06T04:36:00;5.78;;;3.65;;
31112;SDS011;17763;48.730;9.136;2022-07-06T04:38:28;5.20;;;4.00;;
31112;SDS011;17763;48.730;9.136;2022-07-06T04:40:54;3.63;;;3.33;;
31112;SDS011;17763;48.730;9.136;2022-07-06T04:43:20;5.65;;;3.85;;
31112;SDS011;17763;48.730;9.136;2022-07-06T04:45:47;4.40;;;4.03;;
31112;SDS011;17763;48.730;9.136;2022-07-06T04:48:16;9.68;;;3.78;;
31112;SDS011;17763;48.730;9.136;2022-07-06T04:50:42;7.22;;;4.10;;
31112;SDS011;17763;48.730;9.136;2022-07-06T04:53:08;4.18;;;3.70;;
31112;SDS011;17763;48.730;9.136;2022-07-06T04:55:33;4.13;;;3.67;;
31112;SDS011;17763;48.730;9.136;2022-07-06T04:58:04;6.55;;;4.40;;
31112;SDS011;17763;48.730;9.136;2022-07-06T05:00:32;5.90;;;4.25;;
31112;SDS011;17763;48.730;9.136;2022-07-06T05:02:57;4.55;;;4.15;;
31112;SDS011;17763;48.730;9.136;2022-07-06T05:05:23;7.35;;;4.63;;
31112;SDS011;17763;48.730;9.136;2022-07-06T05:07:49;6.32;;;4.03;;
31112;SDS011;17763;48.730;9.136;2022-07-06T05:10:17;4.32;;;3.67;;
31112;SDS011;17763;48.730;9.136;2022-07-06T05:12:42;3.80;;;3.45;;
31112;SDS011;17763;48.730;9.136;2022-07-06T05:15:08;5.50;;;4.22;;
31112;SDS011;17763;48.730;9.136;2022-07-06T05:17:34;4.15;;;3.80;;
31112;SDS011;17763;48.730;9.136;2022-07-06T05:20:00;6.45;;;3.90;;
31112;SDS011;17763;48.730;9.136;2022-07-06T05:22:28;5.40;;;4.00;;
31112;SDS011;17763;48.730;9.136;2022-07-06T05:24:56;7.43;;;4.43;;
31112;SDS011;17763;48.730;9.136;2022-07-06T05:27:22;6.90;;;4.10;;
31112;SDS011;17763;48.730;9.136;2022-07-06T05:29:50;3.35;;;3.05;;
31112;SDS011;17763;48.730;9.136;2022-07-06T05:32:18;8.13;;;3.92;;
31112;SDS011;17763;48.730;9.136;2022-07-06T05:34:43;4.50;;;3.05;;
31112;SDS011;17763;48.730;9.136;2022-07-06T05:37:11;5.78;;;3.00;;
31112;SDS011;17763;48.730;9.136;2022-07-06T05:39:37;4.05;;;3.70;;
31112;SDS011;17763;48.730;9.136;2022-07-06T05:42:03;3.53;;;2.78;;
31112;SDS011;17763;48.730;9.136;2022-07-06T05:44:30;4.50;;;3.88;;
31112;SDS011;17763;48.730;9.136;2022-07-06T05:46:56;3.60;;;3.20;;
31112;SDS011;17763;48.730;9.136;2022-07-06T05:49:41;4.07;;;3.38;;
31112;SDS011;17763;48.730;9.136;2022-07-06T05:52:25;3.60;;;3.30;;
31112;SDS011;17763;48.730;9.136;2022-07-06T05:54:51;3.30;;;3.00;;
31112;SDS011;17763;48.730;9.136;2022-07-06T05:57:19;3.88;;;2.78;;
31112;SDS011;17763;48.730;9.136;2022-07-06T05:59:44;3.25;;;2.92;;
31112;SDS011;17763;48.730;9.136;2022-07-06T06:02:12;3.88;;;3.03;;
31112;SDS011;17763;48.730;9.136;2022-07-06T06:04:40;3.35;;;3.05;;
31112;SDS011;17763;48.730;9.136;2022-07-06T06:07:06;3.17;;;2.97;;
31112;SDS011;17763;48.730;9.136;2022-07-06T06:09:31;4.63;;;2.80;;
31112;SDS011;17763;48.730;9.136;2022-07-06T06:11:59;4.38;;;3.13;;
31112;SDS011;17763;48.730;9.136;2022-07-06T06:14:25;7.30;;;3.03;;
31112;SDS011;17763;48.730;9.136;2022-07-06T06:16:53;3.10;;;2.85;;
31112;SDS011;17763;48.730;9.136;2022-07-06T06:19:21;7.15;;;2.90;;
31112;SDS011;17763;48.730;9.136;2022-07-06T06:21:46;7.25;;;3.45;;
31112;SDS011;17763;48.730;9.136;2022-07-06T06:24:16;3.47;;;2.83;;
31112;SDS011;17763;48.730;9.136;2022-07-06T06:26:42;3.40;;;2.90;;
31112;SDS011;17763;48.730;9.136;2022-07-06T06:29:10;6.93;;;3.22;;
31112;SDS011;17763;48.730;9.136;2022-07-06T06:31:36;4.82;;;2.75;;
31112;SDS011;17763;48.730;9.136;2022-07-06T06:34:04;7.50;;;3.15;;
31112;SDS011;17763;48.730;9.136;2022-07-06T06:36:29;7.90;;;4.10;;
31112;SDS011;17763;48.730;9.136;2022-07-06T06:38:57;3.88;;;3.05;;
31112;SDS011;17763;48.730;9.136;2022-07-06T06:41:26;3.80;;;2.70;;
31112;SDS011;17763;48.730;9.136;2022-07-06T06:43:52;4.40;;;3.20;;
31112;SDS011;17763;48.730;9.136;2022-07-06T06:46:18;3.45;;;2.97;;
31112;SDS011;17763;48.730;9.136;2022-07-06T06:48:43;4.38;;;2.63;;
31112;SDS011;17763;48.730;9.136;2022-07-06T06:51:12;4.40;;;3.03;;
31112;SDS011;17763;48.730;9.136;2022-07-06T06:53:37;6.00;;;3.20;;
31112;SDS011;17763;48.730;9.136;2022-07-06T06:56:05;5.75;;;2.92;;
31112;SDS011;17763;48.730;9.136;2022-07-06T06:58:31;8.02;;;3.47;;
31112;SDS011;17763;48.730;9.136;2022-07-06T07:01:01;5.07;;;3.17;;
31112;SDS011;17763;48.730;9.136;2022-07-06T07:03:27;5.20;;;2.70;;
31112;SDS011;17763;48.730;9.136;2022-07-06T07:05:55;5.07;;;2.95;;
31112;SDS011;17763;48.730;9.136;2022-07-06T07:08:21;6.25;;;2.85;;
31112;SDS011;17763;48.730;9.136;2022-07-06T07:10:47;6.05;;;2.95;;
31112;SDS011;17763;48.730;9.136;2022-07-06T07:13:13;5.25;;;2.78;;
31112;SDS011;17763;48.730;9.136;2022-07-06T07:15:38;2.65;;;2.28;;
31112;SDS011;17763;48.730;9.136;2022-07-06T07:18:04;5.63;;;3.15;;
31112;SDS011;17763;48.730;9.136;2022-07-06T07:20:30;4.80;;;2.83;;
31112;SDS011;17763;48.730;9.136;2022-07-06T07:22:58;4.72;;;2.95;;
31112;SDS011;17763;48.730;9.136;2022-07-06T07:25:24;5.35;;;2.83;;
31112;SDS011;17763;48.730;9.136;2022-07-06T07:27:53;3.00;;;2.67;;
31112;SDS011;17763;48.730;9.136;2022-07-06T07:30:19;4.97;;;3.25;;
31112;SDS011;17763;48.730;9.136;2022-07-06T07:32:45;4.07;;;2.70;;
31112;SDS011;17763;48.730;9.136;2022-07-06T07:35:13;4.53;;;2.70;;
31112;SDS011;17763;48.730;9.136;2022-07-06T07:37:41;3.10;;;2.83;;
31112;SDS011;17763;48.730;9.136;2022-07-06T07:40:06;3.60;;;2.40;;
31112;SDS011;17763;48.730;9.136;2022-07-06T07:42:32;3.25;;;2.40;;
31112;SDS011;17763;48.730;9.136;2022-07-06T07:45:00;3.35;;;2.33;;
31112;SDS011;17763;48.730;9.136;2022-07-06T07:47:28;5.43;;;2.92;;
31112;SDS011;17763;48.730;9.136;2022-07-06T07:49:54;3.28;;;2.42;;
31112;SDS011;17763;48.730;9.136;2022-07-06T07:52:19;5.30;;;2.55;;
31112;SDS011;17763;48.730;9.136;2022-07-06T07:54:45;4.82;;;3.10;;
31112;SDS011;17763;48.730;9.136;2022-07-06T07:57:15;3.47;;;2.55;;
31112;SDS011;17763;48.730;9.136;2022-07-06T07:59:41;2.63;;;2.38;;
31112;SDS011;17763;48.730;9.136;2022-07-06T08:02:07;5.40;;;2.55;;
31112;SDS011;17763;48.730;9.136;2022-07-06T08:04:35;6.10;;;2.85;;
31112;SDS011;17763;48.730;9.136;2022-07-06T08:07:01;2.72;;;2.53;;
31112;SDS011;17763;48.730;9.136;2022-07-06T08:09:27;2.60;;;2.40;;
31112;SDS011;17763;48.730;9.136;2022-07-06T08:11:55;5.68;;;2.60;;
31112;SDS011;17763;48.730;9.136;2022-07-06T08:14:23;3.42;;;2.72;;
31112;SDS011;17763;48.730;9.136;2022-07-06T08:16:49;4.53;;;2.50;;
31112;SDS011;17763;48.730;9.136;2022-07-06T08:19:16;3.35;;;2.58;;
31112;SDS011;17763;48.730;9.136;2022-07-06T08:21:44;4.88;;;3.33;;
31112;SDS011;17763;48.730;9.136;2022-07-06T08:24:10;5.10;;;3.08;;
31112;SDS011;17763;48.730;9.136;2022-07-06T08:26:38;6.57;;;2.92;;
31112;SDS011;17763;48.730;9.136;2022-07-06T08:29:03;5.28;;;3.10;;
31112;SDS011;17763;48.730;9.136;2022-07-06T08:31:30;2.40;;;2.20;;
31112;SDS011;17763;48.730;9.136;2022-07-06T08:34:00;7.53;;;3.67;;
31112;SDS011;17763;48.730;9.136;2022-07-06T08:36:27;3.80;;;2.45;;
31112;SDS011;17763;48.730;9.136;2022-07-06T08:38:55;3.28;;;3.00;;
31112;SDS011;17763;48.730;9.136;2022-07-06T08:41:22;3.90;;;2.60;;
31112;SDS011;17763;48.730;9.136;2022-07-06T08:43:53;3.90;;;3.35;;
31112;SDS011;17763;48.730;9.136;2022-07-06T08:46:19;7.00;;;3.20;;
31112;SDS011;17763;48.730;9.136;2022-07-06T08:48:45;4.43;;;3.30;;
31112;SDS011;17763;48.730;9.136;2022-07-06T08:51:15;2.50;;;2.30;;
31112;SDS011;17763;48.730;9.136;2022-07-06T08:53:44;5.93;;;3.05;;
31112;SDS011;17763;48.730;9.136;2022-07-06T08:56:13;4.78;;;2.67;;
31112;SDS011;17763;48.730;9.136;2022-07-06T08:58:43;5.43;;;3.20;;
31112;SDS011;17763;48.730;9.136;2022-07-06T09:01:11;3.15;;;2.85;;
31112;SDS011;17763;48.730;9.136;2022-07-06T09:03:40;3.15;;;2.85;;
31112;SDS011;17763;48.730;9.136;2022-07-06T09:06:07;4.93;;;2.30;;
31112;SDS011;17763;48.730;9.136;2022-07-06T09:08:35;5.88;;;3.90;;
31112;SDS011;17763;48.730;9.136;2022-07-06T09:11:04;6.40;;;3.70;;
31112;SDS011;17763;48.730;9.136;2022-07-06T09:13:33;10.50;;;3.75;;
31112;SDS011;17763;48.730;9.136;2022-07-06T09:16:11;6.40;;;3.28;;
31112;SDS011;17763;48.730;9.136;2022-07-06T09:18:39;7.72;;;2.97;;
31112;SDS011;17763;48.730;9.136;2022-07-06T09:21:09;6.07;;;3.05;;
31112;SDS011;17763;48.730;9.136;2022-07-06T09:23:36;3.63;;;3.33;;
31112;SDS011;17763;48.730;9.136;2022-07-06T09:26:03;3.55;;;2.90;;
31112;SDS011;17763;48.730;9.136;2022-07-06T09:28:43;4.22;;;2.95;;
31112;SDS011;17763;48.730;9.136;2022-07-06T09:31:09;5.22;;;3.33;;
31112;SDS011;17763;48.730;9.136;2022-07-06T09:33:35;4.35;;;3.05;;
31112;SDS011;17763;48.730;9.136;2022-07-06T09:36:03;2.40;;;2.20;;
31112;SDS011;17763;48.730;9.136;2022-07-06T09:38:30;4.55;;;3.30;;
31112;SDS011;17763;48.730;9.136;2022-07-06T09:40:56;3.58;;;2.88;;
31112;SDS011;17763;48.730;9.136;2022-07-06T09:43:22;4.40;;;2.90;;
31112;SDS011;17763;48.730;9.136;2022-07-06T09:45:52;6.05;;;3.33;;
31112;SDS011;17763;48.730;9.136;2022-07-06T09:48:26;5.30;;;3.20;;
31112;SDS011;17763;48.730;9.136;2022-07-06T09:50:57;3.22;;;2.55;;
31112;SDS011;17763;48.730;9.136;2022-07-06T09:53:24;4.63;;;3.47;;
31112;SDS011;17763;48.730;9.136;2022-07-06T09:55:51;5.93;;;3.78;;
31112;SDS011;17763;48.730;9.136;2022-07-06T09:58:19;7.07;;;3.33;;
31112;SDS011;17763;48.730;9.136;2022-07-06T10:00:46;4.50;;;3.15;;
31112;SDS011;17763;48.730;9.136;2022-07-06T10:03:13;4.30;;;2.85;;
31112;SDS011;17763;48.730;9.136;2022-07-06T10:05:43;9.43;;;2.80;;
31112;SDS011;17763;48.730;9.136;2022-07-06T10:10:44;3.83;;;3.17;;
31112;SDS011;17763;48.730;9.136;2022-07-06T10:13:10;7.03;;;3.65;;
31112;SDS011;17763;48.730;9.136;2022-07-06T10:15:39;4.68;;;2.90;;
31112;SDS011;17763;48.730;9.136;2022-07-06T10:18:09;10.80;;;4.15;;
31112;SDS011;17763;48.730;9.136;2022-07-06T10:20:35;5.60;;;3.67;;
31112;SDS011;17763;48.730;9.136;2022-07-06T10:23:03;7.22;;;3.50;;
31112;SDS011;17763;48.730;9.136;2022-07-06T10:25:31;12.35;;;3.90;;
31112;SDS011;17763;48.730;9.136;2022-07-06T10:27:58;8.45;;;3.03;;
31112;SDS011;17763;48.730;9.136;2022-07-06T10:30:27;4.20;;;3.20;;
31112;SDS011;17763;48.730;9.136;2022-07-06T10:32:54;5.25;;;3.30;;
31112;SDS011;17763;48.730;9.136;2022-07-06T10:35:23;5.10;;;3.55;;
31112;SDS011;17763;48.730;9.136;2022-07-06T10:38:07;5.95;;;3.17;;
31112;SDS011;17763;48.730;9.136;2022-07-06T10:40:34;6.88;;;2.90;;
31112;SDS011;17763;48.730;9.136;2022-07-06T10:43:20;6.35;;;3.10;;
31112;SDS011;17763;48.730;9.136;2022-07-06T10:45:55;3.33;;;2.70;;
31112;SDS011;17763;48.730;9.136;2022-07-06T10:48:21;6.70;;;3.42;;
31112;SDS011;17763;48.730;9.136;2022-07-06T10:50:51;5.50;;;3.33;;
31112;SDS011;17763;48.730;9.136;2022-07-06T10:55:49;3.33;;;2.92;;
31112;SDS011;17763;48.730;9.136;2022-07-06T11:01:05;7.65;;;3.83;;
31112;SDS011;17763;48.730;9.136;2022-07-06T11:04:04;4.55;;;3.72;;
31112;SDS011;17763;48.730;9.136;2022-07-06T11:06:32;3.95;;;3.55;;
31112;SDS011;17763;48.730;9.136;2022-07-06T11:09:00;5.03;;;4.05;;
31112;SDS011;17763;48.730;9.136;2022-07-06T11:19:13;4.85;;;3.70;;
31112;SDS011;17763;48.730;9.136;2022-07-06T11:21:48;4.18;;;3.50;;
31112;SDS011;17763;48.730;9.136;2022-07-06T11:24:17;5.18;;;3.58;;
31112;SDS011;17763;48.730;9.136;2022-07-06T11:26:46;7.97;;;4.70;;
31112;SDS011;17763;48.730;9.136;2022-07-06T11:29:16;4.55;;;3.75;;
31112;SDS011;17763;48.730;9.136;2022-07-06T11:31:46;10.68;;;4.40;;
31112;SDS011;17763;48.730;9.136;2022-07-06T11:34:19;4.20;;;3.67;;
31112;SDS011;17763;48.730;9.136;2022-07-06T11:36:46;9.20;;;4.35;;
31112;SDS011;17763;48.730;9.136;2022-07-06T11:39:13;4.38;;;3.97;;
31112;SDS011;17763;48.730;9.136;2022-07-06T11:41:39;4.63;;;3.65;;
31112;SDS011;17763;48.730;9.136;2022-07-06T11:44:08;5.43;;;3.20;;
31112;SDS011;17763;48.730;9.136;2022-07-06T11:46:34;5.13;;;3.25;;
31112;SDS011;17763;48.730;9.136;2022-07-06T11:51:31;5.70;;;3.65;;
31112;SDS011;17763;48.730;9.136;2022-07-06T11:53:58;4.80;;;3.63;;
31112;SDS011;17763;48.730;9.136;2022-07-06T11:56:32;5.32;;;3.78;;
31112;SDS011;17763;48.730;9.136;2022-07-06T11:58:58;5.68;;;3.60;;
31112;SDS011;17763;48.730;9.136;2022-07-06T12:01:25;5.70;;;3.50;;
31112;SDS011;17763;48.730;9.136;2022-07-06T12:03:58;6.93;;;3.40;;
31112;SDS011;17763;48.730;9.136;2022-07-06T12:06:28;4.30;;;3.50;;
31112;SDS011;17763;48.730;9.136;2022-07-06T12:08:55;6.00;;;3.70;;
31112;SDS011;17763;48.730;9.136;2022-07-06T12:11:29;5.20;;;3.75;;
31112;SDS011;17763;48.730;9.136;2022-07-06T12:14:00;5.10;;;3.90;;
31112;SDS011;17763;48.730;9.136;2022-07-06T12:16:31;6.68;;;3.83;;
31112;SDS011;17763;48.730;9.136;2022-07-06T12:19:01;7.68;;;4.53;;
31112;SDS011;17763;48.730;9.136;2022-07-06T12:21:30;4.60;;;3.63;;
31112;SDS011;17763;48.730;9.136;2022-07-06T12:24:00;4.45;;;3.70;;
31112;SDS011;17763;48.730;9.136;2022-07-06T12:26:28;5.50;;;3.15;;
31112;SDS011;17763;48.730;9.136;2022-07-06T12:29:05;5.38;;;3.45;;
31112;SDS011;17763;48.730;9.136;2022-07-06T12:31:35;4.80;;;4.28;;
31112;SDS011;17763;48.730;9.136;2022-07-06T12:34:05;6.97;;;3.75;;
31112;SDS011;17763;48.730;9.136;2022-07-06T12:36:50;6.88;;;3.97;;
31112;SDS011;17763;48.730;9.136;2022-07-06T12:41:50;8.13;;;3.42;;
31112;SDS011;17763;48.730;9.136;2022-07-06T12:46:45;7.25;;;4.10;;
31112;SDS011;17763;48.730;9.136;2022-07-06T12:49:15;9.13;;;3.72;;
31112;SDS011;17763;48.730;9.136;2022-07-06T12:54:31;6.47;;;3.85;;
31112;SDS011;17763;48.730;9.136;2022-07-06T12:59:26;6.60;;;3.70;;
31112;SDS011;17763;48.730;9.136;2022-07-06T13:01:52;8.63;;;3.85;;
31112;SDS011;17763;48.730;9.136;2022-07-06T13:04:25;9.63;;;3.70;;
31112;SDS011;17763;48.730;9.136;2022-07-06T13:09:18;6.22;;;2.80;;
31112;SDS011;17763;48.730;9.136;2022-07-06T13:11:46;3.67;;;2.80;;
31112;SDS011;17763;48.730;9.136;2022-07-06T13:14:13;4.97;;;3.58;;
31112;SDS011;17763;48.730;9.136;2022-07-06T13:16:39;8.02;;;3.28;;
31112;SDS011;17763;48.730;9.136;2022-07-06T13:19:08;3.22;;;2.65;;
31112;SDS011;17763;48.730;9.136;2022-07-06T13:21:34;4.10;;;2.72;;
31112;SDS011;17763;48.730;9.136;2022-07-06T13:24:03;4.13;;;3.35;;
31112;SDS011;17763;48.730;9.136;2022-07-06T13:26:29;5.47;;;2.60;;
31112;SDS011;17763;48.730;9.136;2022-07-06T13:28:58;6.45;;;3.15;;
31112;SDS011;17763;48.730;9.136;2022-07-06T13:31:27;4.70;;;3.08;;
31112;SDS011;17763;48.730;9.136;2022-07-06T13:33:53;5.43;;;3.17;;
31112;SDS011;17763;48.730;9.136;2022-07-06T13:36:19;8.85;;;2.75;;
31112;SDS011;17763;48.730;9.136;2022-07-06T13:38:45;6.90;;;2.75;;
31112;SDS011;17763;48.730;9.136;2022-07-06T13:41:13;3.38;;;3.05;;
31112;SDS011;17763;48.730;9.136;2022-07-06T13:43:38;9.15;;;3.00;;
31112;SDS011;17763;48.730;9.136;2022-07-06T13:46:07;6.05;;;2.55;;
31112;SDS011;17763;48.730;9.136;2022-07-06T13:48:36;10.63;;;2.58;;
31112;SDS011;17763;48.730;9.136;2022-07-06T13:51:02;5.10;;;2.83;;
31112;SDS011;17763;48.730;9.136;2022-07-06T13:53:28;3.13;;;2.92;;
31112;SDS011;17763;48.730;9.136;2022-07-06T13:55:54;3.92;;;2.70;;
31112;SDS011;17763;48.730;9.136;2022-07-06T13:58:22;3.95;;;2.90;;
31112;SDS011;17763;48.730;9.136;2022-07-06T14:00:50;4.43;;;2.42;;
31112;SDS011;17763;48.730;9.136;2022-07-06T14:03:16;4.35;;;2.88;;
31112;SDS011;17763;48.730;9.136;2022-07-06T14:05:43;5.05;;;2.88;;
31112;SDS011;17763;48.730;9.136;2022-07-06T14:08:09;6.65;;;3.45;;
31112;SDS011;17763;48.730;9.136;2022-07-06T14:10:37;5.30;;;2.80;;
31112;SDS011;17763;48.730;9.136;2022-07-06T14:13:03;3.25;;;2.80;;
31112;SDS011;17763;48.730;9.136;2022-07-06T14:15:29;4.97;;;2.35;;
31112;SDS011;17763;48.730;9.136;2022-07-06T14:17:54;4.18;;;2.63;;
31112;SDS011;17763;48.730;9.136;2022-07-06T14:20:20;2.97;;;2.20;;
31112;SDS011;17763;48.730;9.136;2022-07-06T14:22:46;3.78;;;2.35;;
31112;SDS011;17763;48.730;9.136;2022-07-06T14:25:11;3.80;;;2.78;;
31112;SDS011;17763;48.730;9.136;2022-07-06T14:27:37;3.70;;;2.58;;
31112;SDS011;17763;48.730;9.136;2022-07-06T14:30:08;6.95;;;2.33;;
31112;SDS011;17763;48.730;9.136;2022-07-06T14:32:37;2.63;;;2.30;;
31112;SDS011;17763;48.730;9.136;2022-07-06T14:35:05;6.00;;;2.30;;
31112;SDS011;17763;48.730;9.136;2022-07-06T14:37:31;5.82;;;2.63;;
31112;SDS011;17763;48.730;9.136;2022-07-06T14:39:56;4.43;;;2.42;;
31112;SDS011;17763;48.730;9.136;2022-07-06T14:42:24;3.33;;;2.67;;
31112;SDS011;17763;48.730;9.136;2022-07-06T14:44:50;3.35;;;2.53;;
31112;SDS011;17763;48.730;9.136;2022-07-06T14:47:16;2.35;;;2.20;;
31112;SDS011;17763;48.730;9.136;2022-07-06T14:49:41;2.10;;;1.90;;
31112;SDS011;17763;48.730;9.136;2022-07-06T14:52:10;4.90;;;2.30;;
31112;SDS011;17763;48.730;9.136;2022-07-06T14:54:35;3.20;;;2.30;;
31112;SDS011;17763;48.730;9.136;2022-07-06T14:57:01;3.30;;;1.92;;
31112;SDS011;17763;48.730;9.136;2022-07-06T14:59:33;7.90;;;2.72;;
31112;SDS011;17763;48.730;9.136;2022-07-06T15:01:59;4.38;;;2.40;;
31112;SDS011;17763;48.730;9.136;2022-07-06T15:04:24;2.78;;;2.03;;
31112;SDS011;17763;48.730;9.136;2022-07-06T15:06:50;2.53;;;2.13;;
31112;SDS011;17763;48.730;9.136;2022-07-06T15:09:16;3.85;;;2.55;;
31112;SDS011;17763;48.730;9.136;2022-07-06T15:11:44;4.50;;;2.05;;
31112;SDS011;17763;48.730;9.136;2022-07-06T15:14:10;3.35;;;2.47;;
31112;SDS011;17763;48.730;9.136;2022-07-06T15:16:37;2.85;;;2.20;;
31112;SDS011;17763;48.730;9.136;2022-07-06T15:19:03;6.18;;;2.20;;
31112;SDS011;17763;48.730;9.136;2022-07-06T15:21:31;3.67;;;1.85;;